createdAt,value
2023-04-11T07:18:27.555Z,13.48
2023-04-11T07:20:59.801Z,13.56
2023-04-11T07:23:31.925Z,13.65
2023-04-11T07:26:04.402Z,13.71
2023-04-11T07:28:37.766Z,13.74
2023-04-11T07:31:10.956Z,13.78
2023-04-11T07:33:45.713Z,13.83
2023-04-11T07:36:16.350Z,13.91
2023-04-11T07:38:48.685Z,14.01
2023-04-11T07:41:21.098Z,14.10
2023-04-11T07:43:53.301Z,14.16
2023-04-11T07:46:25.480Z,14.20
2023-04-11T07:48:57.571Z,14.22
2023-04-11T07:51:29.908Z,14.23
2023-04-11T07:54:02.148Z,14.28
2023-04-11T07:56:34.210Z,14.34
2023-04-11T07:59:06.429Z,14.37
2023-04-11T08:01:38.573Z,14.42
2023-04-11T08:04:11.253Z,14.47
2023-04-11T08:06:43.997Z,14.52
2023-04-11T08:09:16.204Z,14.58
2023-04-11T08:11:48.271Z,14.68
2023-04-11T08:14:20.469Z,14.77
2023-04-11T08:16:53.406Z,14.78
2023-04-11T08:19:25.936Z,14.81
2023-04-11T08:21:58.072Z,14.78
2023-04-11T08:24:30.133Z,14.79
2023-04-11T08:27:02.546Z,14.79
2023-04-11T08:29:34.873Z,14.83
2023-04-11T08:32:07.239Z,14.85
2023-04-11T08:34:39.346Z,14.90
2023-04-11T08:37:11.667Z,14.92
2023-04-11T08:39:43.980Z,14.90
2023-04-11T08:42:26.187Z,14.95
2023-04-11T08:45:00.028Z,15.04
2023-04-11T08:47:32.342Z,15.07
2023-04-11T08:50:05.141Z,15.09
2023-04-11T08:52:39.235Z,15.08
2023-04-11T08:55:13.842Z,15.09
2023-04-11T08:57:44.449Z,15.08
2023-04-11T09:00:19.307Z,15.05
2023-04-11T09:03:02.291Z,15.02
2023-04-11T09:05:36.533Z,14.96
2023-04-11T09:08:10.490Z,14.87
2023-04-11T09:10:45.409Z,14.81
2023-04-11T09:13:23.579Z,14.77
2023-04-11T09:16:12.136Z,14.73
2023-04-11T09:18:46.636Z,14.68
2023-04-11T09:21:20.065Z,14.65
2023-04-11T09:23:52.330Z,14.64
2023-04-11T09:26:32.728Z,14.63
2023-04-11T09:29:04.810Z,14.66
2023-04-11T09:31:45.741Z,14.72
2023-04-11T09:34:27.862Z,14.79
2023-04-11T09:37:00.087Z,14.86
2023-04-11T09:39:32.788Z,14.92
2023-04-11T09:42:23.861Z,14.98
2023-04-11T09:44:56.095Z,15.12
2023-04-11T09:47:32.794Z,15.24
2023-04-11T09:50:05.404Z,15.31
2023-04-11T09:52:41.083Z,15.36
2023-04-11T09:55:14.580Z,15.40
2023-04-11T09:57:48.442Z,15.42
2023-04-11T10:00:24.401Z,15.44
2023-04-11T10:02:57.402Z,15.51
2023-04-11T10:05:32.006Z,15.61
2023-04-11T10:08:08.078Z,15.67
2023-04-11T10:10:43.665Z,15.69
2023-04-11T10:13:45.670Z,15.65
2023-04-11T10:16:19.627Z,15.58
2023-04-11T10:19:25.321Z,15.53
2023-04-11T10:21:56.106Z,15.49
2023-04-11T10:24:28.238Z,15.45
2023-04-11T10:27:03.871Z,15.38
2023-04-11T10:29:55.937Z,15.33
2023-04-11T10:32:28.200Z,15.29
2023-04-11T10:35:27.697Z,15.24
2023-04-11T10:37:59.987Z,15.18
2023-04-11T10:40:32.260Z,15.19
2023-04-11T10:43:22.435Z,15.24
2023-04-11T10:46:21.773Z,15.33
2023-04-11T10:49:04.497Z,15.47
2023-04-11T10:51:36.930Z,15.62
2023-04-11T10:54:25.116Z,15.74
2023-04-11T10:57:00.005Z,15.88
2023-04-11T11:00:14.274Z,15.91
2023-04-11T11:02:47.083Z,15.91
2023-04-11T11:05:24.295Z,15.83
2023-04-11T11:07:56.831Z,15.75
2023-04-11T11:10:47.356Z,15.66
2023-04-11T11:13:19.956Z,15.64
2023-04-11T11:15:52.744Z,15.66
2023-04-11T11:18:25.034Z,15.70
2023-04-11T11:20:58.844Z,15.74
2023-04-11T11:23:31.081Z,15.76
2023-04-11T11:26:03.364Z,15.75
2023-04-11T11:28:46.429Z,15.75
2023-04-11T11:31:18.593Z,15.75
2023-04-11T11:33:50.860Z,15.73
2023-04-11T11:36:23.016Z,15.74
2023-04-11T11:38:55.466Z,15.69
2023-04-11T11:41:28.448Z,15.66
2023-04-11T11:44:01.495Z,15.68
2023-04-11T11:46:34.210Z,15.67
2023-04-11T11:49:08.395Z,15.65
2023-04-11T11:51:45.837Z,15.62
2023-04-11T11:54:17.993Z,15.62
2023-04-11T11:56:53.921Z,15.61
2023-04-11T11:59:30.469Z,15.54
2023-04-11T12:02:03.670Z,15.52
2023-04-11T12:04:36.426Z,15.51
2023-04-11T12:07:13.409Z,15.46
2023-04-11T12:09:48.826Z,15.42
2023-04-11T12:12:21.103Z,15.38
2023-04-11T12:14:56.946Z,15.32
2023-04-11T12:17:36.242Z,15.24
2023-04-11T12:20:11.984Z,15.20
2023-04-11T12:22:44.540Z,15.21
2023-04-11T12:25:17.533Z,15.24
2023-04-11T12:27:51.156Z,15.25
2023-04-11T12:30:23.465Z,15.22
2023-04-11T12:32:56.305Z,15.17
2023-04-11T12:35:28.579Z,15.14
2023-04-11T12:38:00.751Z,15.11
2023-04-11T12:40:32.989Z,15.09
2023-04-11T12:43:05.128Z,15.06
2023-04-11T12:45:37.727Z,15.04
2023-04-11T12:48:10.786Z,15.02
2023-04-11T12:50:43.073Z,14.97
2023-04-11T12:53:15.206Z,14.94
2023-04-11T12:55:49.990Z,14.91
2023-04-11T12:58:22.271Z,14.91
2023-04-11T13:00:54.362Z,14.94
2023-04-11T13:03:27.577Z,14.99
2023-04-11T13:05:59.895Z,15.05
2023-04-11T13:08:32.072Z,15.11
2023-04-11T13:11:04.180Z,15.18
2023-04-11T13:13:36.858Z,15.25
2023-04-11T13:16:12.485Z,15.30
2023-04-11T13:18:44.906Z,15.32
2023-04-11T13:21:17.069Z,15.29
2023-04-11T13:23:49.284Z,15.28
2023-04-11T13:26:21.504Z,15.26
2023-04-11T13:28:53.751Z,15.26
2023-04-11T13:31:26.818Z,15.27
2023-04-11T13:33:59.495Z,15.29
2023-04-11T13:36:32.364Z,15.32
2023-04-11T13:39:05.817Z,15.37
2023-04-11T13:41:38.091Z,15.41
2023-04-11T13:44:10.205Z,15.45
2023-04-11T13:46:42.296Z,15.48
2023-04-11T13:49:14.660Z,15.49
2023-04-11T13:51:46.957Z,15.53
2023-04-11T13:54:19.153Z,15.54
2023-04-11T13:56:51.304Z,15.55
2023-04-11T13:59:23.627Z,15.56
2023-04-11T14:01:55.791Z,15.55
2023-04-11T14:04:28.878Z,15.58
2023-04-11T14:07:01.080Z,15.64
2023-04-11T14:09:33.167Z,15.69
2023-04-11T14:12:05.566Z,15.72
2023-04-11T14:14:37.731Z,15.75
2023-04-11T14:17:09.903Z,15.76
2023-04-11T14:19:42.167Z,15.79
2023-04-11T14:22:14.507Z,15.80
2023-04-11T14:24:46.711Z,15.76
2023-04-11T14:27:18.736Z,15.74
2023-04-11T14:29:51.464Z,15.72
2023-04-11T14:32:23.802Z,15.71
2023-04-11T14:34:56.257Z,15.68
2023-04-11T14:37:28.344Z,15.72
2023-04-11T14:40:00.540Z,15.73
2023-04-11T14:42:32.836Z,15.70
2023-04-11T14:45:06.016Z,15.69
2023-04-11T14:47:39.837Z,15.70
2023-04-11T14:50:13.426Z,15.69
2023-04-11T14:52:45.672Z,15.71
2023-04-11T14:55:18.137Z,15.71
2023-04-11T14:57:52.729Z,15.71
2023-04-11T15:00:25.043Z,15.68
2023-04-11T15:02:58.602Z,15.63
2023-04-11T15:05:30.778Z,15.57
2023-04-11T15:08:03.606Z,15.51
2023-04-11T15:10:36.129Z,15.45
2023-04-11T15:13:09.230Z,15.39
2023-04-11T15:15:41.429Z,15.34
2023-04-11T15:18:25.151Z,15.31
2023-04-11T15:20:58.424Z,15.28
2023-04-11T15:23:30.680Z,15.24
2023-04-11T15:26:04.378Z,15.21
2023-04-11T15:28:38.307Z,15.19
2023-04-11T15:31:13.045Z,15.16
2023-04-11T15:33:45.160Z,15.13
2023-04-11T15:36:17.754Z,15.11
2023-04-11T15:38:50.012Z,15.09
2023-04-11T15:41:22.178Z,15.08
2023-04-11T15:43:54.543Z,15.06
2023-04-11T15:46:27.294Z,15.05
2023-04-11T15:48:59.376Z,15.04
2023-04-11T15:51:31.605Z,15.02
2023-04-11T15:54:04.916Z,15.00
2023-04-11T15:56:37.411Z,14.98
2023-04-11T15:59:12.961Z,14.95
2023-04-11T16:01:45.093Z,14.94
2023-04-11T16:04:19.944Z,14.91
2023-04-11T16:06:52.618Z,14.88
2023-04-11T16:09:24.822Z,14.85
2023-04-11T16:11:57.305Z,14.82
2023-04-11T16:14:30.167Z,14.79
2023-04-11T16:17:02.236Z,14.77
2023-04-11T16:19:34.393Z,14.74
2023-04-11T16:22:06.546Z,14.72
2023-04-11T16:24:38.629Z,14.70
2023-04-11T16:27:10.792Z,14.68
2023-04-11T16:29:43.062Z,14.65
2023-04-11T16:32:15.191Z,14.64
2023-04-11T16:34:47.278Z,14.61
2023-04-11T16:37:19.434Z,14.58
2023-04-11T16:39:51.611Z,14.54
2023-04-11T16:42:23.976Z,14.49
2023-04-11T16:44:56.135Z,14.46
2023-04-11T16:47:28.338Z,14.42
2023-04-11T16:50:00.676Z,14.38
2023-04-11T16:52:33.153Z,14.35
2023-04-11T16:55:05.821Z,14.32
2023-04-11T16:57:38.195Z,14.30
2023-04-11T17:00:16.149Z,14.27
2023-04-11T17:02:48.648Z,14.24
2023-04-11T17:05:21.075Z,14.21
2023-04-11T17:07:53.222Z,14.18
2023-04-11T17:10:25.416Z,14.16
2023-04-11T17:12:58.954Z,14.14
2023-04-11T17:15:31.539Z,14.12
2023-04-11T17:18:03.664Z,14.10
2023-04-11T17:20:36.121Z,14.07
2023-04-11T17:23:08.308Z,14.05
2023-04-11T17:25:40.518Z,14.03
2023-04-11T17:28:12.798Z,14.01
2023-04-11T17:30:44.952Z,14.00
2023-04-11T17:33:17.423Z,13.98
2023-04-11T17:35:49.894Z,13.95
2023-04-11T17:38:22.169Z,13.95
2023-04-11T17:41:00.309Z,13.93
2023-04-11T17:43:39.101Z,13.93
2023-04-11T17:46:12.501Z,13.90
2023-04-11T17:48:44.704Z,13.85
2023-04-11T17:51:16.799Z,13.76
2023-04-11T17:53:48.894Z,13.67
2023-04-11T17:56:31.170Z,13.55
2023-04-11T17:59:03.464Z,13.44
2023-04-11T18:01:35.806Z,13.37
2023-04-11T18:04:09.901Z,13.31
2023-04-11T18:06:46.153Z,13.22
2023-04-11T18:09:18.544Z,13.13
2023-04-11T18:11:53.111Z,13.07
2023-04-11T18:14:25.506Z,13.04
2023-04-11T18:16:59.114Z,13.09
2023-04-11T18:19:31.436Z,13.10
2023-04-11T18:22:03.755Z,13.10
2023-04-11T18:24:36.070Z,13.10
2023-04-11T18:27:09.242Z,13.07
2023-04-11T18:29:42.369Z,13.05
2023-04-11T18:32:14.627Z,13.02
2023-04-11T18:34:47.293Z,13.01
2023-04-11T18:37:21.408Z,13.01
2023-04-11T18:39:55.146Z,12.98
2023-04-11T18:42:27.450Z,12.94
2023-04-11T18:45:00.232Z,12.86
2023-04-11T18:47:32.781Z,12.80
2023-04-11T18:50:05.854Z,12.71
2023-04-11T18:52:38.327Z,12.66
2023-04-11T18:55:13.916Z,12.63
2023-04-11T18:57:48.669Z,12.57
2023-04-11T19:00:22.211Z,12.54
2023-04-11T19:02:54.897Z,12.51
2023-04-11T19:05:28.198Z,12.53
2023-04-11T19:08:01.951Z,12.50
2023-04-11T19:10:34.652Z,12.51
2023-04-11T19:13:07.250Z,12.52
2023-04-11T19:15:41.197Z,12.50
2023-04-11T19:18:13.770Z,12.49
2023-04-11T19:20:46.502Z,12.48
2023-04-11T19:23:19.763Z,12.48
2023-04-11T19:25:52.236Z,12.47
2023-04-11T19:28:24.778Z,12.45
2023-04-11T19:30:56.988Z,12.43
2023-04-11T19:33:29.425Z,12.42
2023-04-11T19:36:01.718Z,12.39
2023-04-11T19:38:34.783Z,12.38
2023-04-11T19:41:15.508Z,12.38
2023-04-11T19:43:48.816Z,12.44
2023-04-11T19:46:21.251Z,12.45
2023-04-11T19:48:55.060Z,12.46
2023-04-11T19:51:27.569Z,12.46
2023-04-11T19:54:00.039Z,12.45
2023-04-11T19:56:32.404Z,12.43
2023-04-11T19:59:04.706Z,12.41
2023-04-11T20:01:36.994Z,12.39
2023-04-11T20:04:09.828Z,12.37
2023-04-11T20:06:44.149Z,12.35
2023-04-11T20:09:16.433Z,12.34
2023-04-11T20:11:50.840Z,12.33
2023-04-11T20:14:23.300Z,12.30
2023-04-11T20:16:55.605Z,12.30
2023-04-11T20:19:29.877Z,12.35
2023-04-11T20:22:03.066Z,12.36
2023-04-11T20:24:35.429Z,12.37
2023-04-11T20:27:07.650Z,12.37
2023-04-11T20:29:39.717Z,12.34
2023-04-11T20:32:12.068Z,12.31
2023-04-11T20:34:44.180Z,12.27
2023-04-11T20:37:18.360Z,12.24
2023-04-11T20:39:50.697Z,12.20
2023-04-11T20:42:22.960Z,12.15
2023-04-11T20:44:57.942Z,12.10
2023-04-11T20:47:30.200Z,12.04
2023-04-11T20:50:03.973Z,11.96
2023-04-11T20:52:36.951Z,11.92
2023-04-11T20:55:13.728Z,11.95
2023-04-11T20:57:46.213Z,11.92
2023-04-11T21:00:20.246Z,11.88
2023-04-11T21:02:53.207Z,11.87
2023-04-11T21:05:25.903Z,11.84
2023-04-11T21:07:58.480Z,11.80
2023-04-11T21:10:30.605Z,11.78
2023-04-11T21:13:02.759Z,11.74
2023-04-11T21:15:36.086Z,11.69
2023-04-11T21:18:08.382Z,11.65
2023-04-11T21:20:41.743Z,11.60
2023-04-11T21:23:13.886Z,11.57
2023-04-11T21:25:45.989Z,11.60
2023-04-11T21:28:18.238Z,11.59
2023-04-11T21:30:50.533Z,11.58
2023-04-11T21:33:22.747Z,11.60
2023-04-11T21:35:56.915Z,11.60
2023-04-11T21:38:29.169Z,11.59
2023-04-11T21:41:01.319Z,11.59
2023-04-11T21:43:33.487Z,11.58
2023-04-11T21:46:05.985Z,11.58
2023-04-11T21:48:38.148Z,11.57
2023-04-11T21:51:11.121Z,11.56
2023-04-11T21:53:43.229Z,11.54
2023-04-11T21:56:15.559Z,11.54
2023-04-11T21:58:47.777Z,11.61
2023-04-11T22:01:21.084Z,11.64
2023-04-11T22:03:53.379Z,11.64
2023-04-11T22:06:26.687Z,11.61
2023-04-11T22:09:01.489Z,11.56
2023-04-11T22:11:32.119Z,11.51
2023-04-11T22:14:04.312Z,11.45
2023-04-11T22:16:36.531Z,11.39
2023-04-11T22:19:09.159Z,11.34
2023-04-11T22:21:41.406Z,11.29
2023-04-11T22:24:13.643Z,11.24
2023-04-11T22:26:49.243Z,11.20
2023-04-11T22:29:22.290Z,11.21
2023-04-11T22:31:54.588Z,11.19
2023-04-11T22:34:27.047Z,11.18
2023-04-11T22:36:59.128Z,11.17
2023-04-11T22:39:31.721Z,11.13
2023-04-11T22:42:04.954Z,11.09
2023-04-11T22:44:37.126Z,11.06
2023-04-11T22:47:13.616Z,11.02
2023-04-11T22:49:45.973Z,10.97
2023-04-11T22:52:24.416Z,10.93
2023-04-11T22:54:57.764Z,10.89
2023-04-11T22:57:29.857Z,10.88
2023-04-11T23:00:03.097Z,10.92
2023-04-11T23:02:36.155Z,10.93
2023-04-11T23:05:11.492Z,10.94
2023-04-11T23:07:44.099Z,10.92
2023-04-11T23:10:17.279Z,10.88
2023-04-11T23:12:49.658Z,10.84
2023-04-11T23:15:22.795Z,10.79
2023-04-11T23:17:55.040Z,10.75
2023-04-11T23:20:27.558Z,10.71
2023-04-11T23:22:59.848Z,10.68
2023-04-11T23:25:32.080Z,10.63
2023-04-11T23:28:04.256Z,10.63
2023-04-11T23:30:37.350Z,10.69
2023-04-11T23:33:09.610Z,10.70
2023-04-11T23:35:42.113Z,10.73
2023-04-11T23:38:14.250Z,10.76
2023-04-11T23:40:46.500Z,10.76
2023-04-11T23:43:18.638Z,10.76
2023-04-11T23:45:50.950Z,10.77
2023-04-11T23:48:23.688Z,10.75
2023-04-11T23:50:56.367Z,10.75
2023-04-11T23:53:28.511Z,10.75
2023-04-11T23:56:03.397Z,10.73
2023-04-11T23:58:35.074Z,10.71
